Time;durP1;ratioP1;P1;durP2;ratioP2;P2;SDS_P1;SDS_P2;PMS_P1;PMS_P2;Temp;Humidity;BMP_temperature;BMP_pressure;BME280_temperature;BME280_humidity;BME280_pressure;Samples;Min_cycle;Max_cycle;Signal;HPM_P1;HPM_P2
2023/04/15 00:02:15;;;;;;;9.33;5.93;;;9.40;99.90;;;;;;5005299;28;20241;-82
2023/04/15 00:04:41;;;;;;;12.10;6.00;;;9.40;99.90;;;;;;4995044;28;20216;-84
2023/04/15 00:07:08;;;;;;;12.20;6.30;;;9.40;99.90;;;;;;4995388;28;20283;-84
2023/04/15 00:09:35;;;;;;;12.60;6.10;;;9.40;99.90;;;;;;4995250;28;20210;-83
2023/04/15 00:12:02;;;;;;;9.47;6.20;;;9.40;99.90;;;;;;4995059;28;20604;-80
2023/04/15 00:14:29;;;;;;;7.77;5.90;;;9.40;99.90;;;;;;4995179;28;20319;-82
2023/04/15 00:16:58;;;;;;;9.73;6.27;;;9.30;99.90;;;;;;4995534;28;20192;-83
2023/04/15 00:19:25;;;;;;;9.63;6.10;;;9.30;99.90;;;;;;4995488;28;20290;-84
2023/04/15 00:21:52;;;;;;;12.73;6.60;;;9.30;99.90;;;;;;4995034;28;20219;-84
2023/04/15 00:24:19;;;;;;;8.67;6.10;;;9.30;99.90;;;;;;4995309;28;20243;-83
2023/04/15 00:26:46;;;;;;;10.27;6.17;;;9.20;99.90;;;;;;4995445;28;20283;-83
2023/04/15 00:29:13;;;;;;;9.00;5.60;;;9.20;99.90;;;;;;4996111;28;20306;-84
2023/04/15 00:31:40;;;;;;;7.27;5.90;;;9.20;99.90;;;;;;4994758;28;20202;-84
2023/04/15 00:34:08;;;;;;;8.43;5.87;;;9.20;99.90;;;;;;5009091;28;20219;-85
2023/04/15 00:36:35;;;;;;;9.93;6.03;;;9.10;99.90;;;;;;5011597;28;20215;-83
2023/04/15 00:39:02;;;;;;;10.23;6.93;;;9.10;99.90;;;;;;4994200;28;20750;-81
2023/04/15 00:41:30;;;;;;;10.07;6.23;;;9.10;99.90;;;;;;4994536;28;20196;-81
2023/04/15 00:43:57;;;;;;;9.33;6.23;;;9.10;99.90;;;;;;4997220;28;20231;-82
2023/04/15 00:46:26;;;;;;;9.00;6.50;;;9.10;99.90;;;;;;5013738;28;20227;-83
2023/04/15 00:48:54;;;;;;;6.33;5.40;;;9.00;99.90;;;;;;5014347;28;20205;-80
2023/04/15 00:51:23;;;;;;;7.33;5.03;;;9.00;99.90;;;;;;5014528;28;20200;-83
2023/04/15 00:53:51;;;;;;;7.70;5.97;;;8.90;99.90;;;;;;5009291;28;20387;-80
2023/04/15 00:56:19;;;;;;;10.27;6.17;;;8.90;99.90;;;;;;4995423;28;20211;-83
2023/04/15 00:58:46;;;;;;;9.30;6.50;;;8.90;99.90;;;;;;4995415;28;20239;-84
2023/04/15 01:01:12;;;;;;;9.90;6.63;;;8.80;99.90;;;;;;4995183;28;20196;-83
2023/04/15 01:03:40;;;;;;;9.63;6.03;;;8.70;99.90;;;;;;4994849;28;20291;-83
2023/04/15 01:06:07;;;;;;;9.50;5.70;;;8.70;99.90;;;;;;5005213;28;20235;-83
2023/04/15 01:08:36;;;;;;;10.40;5.83;;;8.70;99.90;;;;;;5014172;28;20234;-83
2023/04/15 01:11:04;;;;;;;12.53;6.93;;;8.70;99.90;;;;;;5013932;28;20199;-83
2023/04/15 01:13:31;;;;;;;9.40;5.30;;;8.70;99.90;;;;;;5008402;28;20208;-82
2023/04/15 01:15:58;;;;;;;8.47;5.90;;;8.70;99.90;;;;;;4994074;28;20235;-83
2023/04/15 01:18:25;;;;;;;11.13;6.00;;;8.70;99.90;;;;;;4995126;28;20533;-84
2023/04/15 01:20:52;;;;;;;9.73;5.17;;;8.70;99.90;;;;;;4994591;28;20295;-83
2023/04/15 01:23:19;;;;;;;9.17;6.23;;;8.60;99.90;;;;;;5009208;28;20203;-84
2023/04/15 01:25:48;;;;;;;10.50;6.17;;;8.60;99.90;;;;;;5014166;28;20789;-84
2023/04/15 01:28:16;;;;;;;8.33;6.57;;;8.60;99.90;;;;;;5012467;28;20290;-83
2023/04/15 01:30:43;;;;;;;8.27;5.90;;;8.60;99.90;;;;;;5013735;28;20199;-83
2023/04/15 01:33:10;;;;;;;8.47;5.33;;;8.50;99.90;;;;;;5000031;28;20215;-83
2023/04/15 01:35:37;;;;;;;9.27;5.87;;;8.50;99.90;;;;;;4994324;28;20491;-83
2023/04/15 01:38:07;;;;;;;6.67;5.97;;;8.40;99.90;;;;;;5004622;28;20279;-83
2023/04/15 01:40:34;;;;;;;7.67;5.87;;;8.40;99.90;;;;;;5013479;28;20454;-83
2023/04/15 01:43:03;;;;;;;9.77;6.23;;;8.40;99.90;;;;;;5013120;28;20282;-82
2023/04/15 01:45:30;;;;;;;11.10;7.03;;;8.30;99.90;;;;;;5013564;28;20246;-81
2023/04/15 01:47:57;;;;;;;11.90;6.40;;;8.30;99.90;;;;;;5013583;28;20518;-83
2023/04/15 01:50:24;;;;;;;9.93;6.23;;;8.30;99.90;;;;;;5004107;28;20292;-83
2023/04/15 01:52:52;;;;;;;9.63;5.80;;;8.20;99.90;;;;;;4993813;28;20206;-81
2023/04/15 01:55:19;;;;;;;9.03;6.40;;;8.20;99.90;;;;;;4993676;28;20188;-83
2023/04/15 01:57:46;;;;;;;8.23;5.73;;;8.20;99.90;;;;;;4998765;28;20269;-81
2023/04/15 02:00:15;;;;;;;10.50;6.17;;;8.20;99.90;;;;;;5012730;28;20976;-81
2023/04/15 02:02:42;;;;;;;10.47;6.73;;;8.20;99.90;;;;;;5015844;28;20262;-79
2023/04/15 02:05:09;;;;;;;8.33;7.23;;;8.20;99.90;;;;;;5007966;28;20525;-82
2023/04/15 02:07:36;;;;;;;10.03;6.87;;;8.20;99.90;;;;;;4997696;28;20226;-81
2023/04/15 02:10:04;;;;;;;8.87;6.63;;;8.20;99.90;;;;;;4997145;28;20210;-81
2023/04/15 02:12:30;;;;;;;12.30;6.37;;;8.20;99.90;;;;;;4997281;28;20664;-83
2023/04/15 02:14:57;;;;;;;9.20;7.23;;;8.20;99.90;;;;;;4997131;28;20228;-81
2023/04/15 02:17:26;;;;;;;10.33;6.80;;;8.30;99.90;;;;;;4997133;28;20717;-83
2023/04/15 02:19:53;;;;;;;10.30;6.43;;;8.30;99.90;;;;;;5002644;28;20207;-82
2023/04/15 02:22:20;;;;;;;9.93;6.67;;;8.30;99.90;;;;;;5017447;28;20196;-84
2023/04/15 02:24:47;;;;;;;10.20;6.83;;;8.40;99.90;;;;;;5005168;28;20231;-84
2023/04/15 02:27:17;;;;;;;8.50;6.70;;;8.40;99.90;;;;;;4997881;28;20295;-83
2023/04/15 02:29:44;;;;;;;11.30;6.63;;;8.50;99.90;;;;;;4997929;28;20199;-83
2023/04/15 02:32:11;;;;;;;9.70;5.77;;;8.50;99.90;;;;;;4997051;28;20206;-83
2023/04/15 02:34:43;;;;;;;9.80;6.50;;;8.50;99.90;;;;;;5014349;28;20233;-84
2023/04/15 02:37:10;;;;;;;7.77;6.40;;;8.50;99.90;;;;;;5017288;28;20635;-82
2023/04/15 02:39:37;;;;;;;6.83;6.07;;;8.40;99.90;;;;;;5016898;28;20627;-80
2023/04/15 02:42:04;;;;;;;8.90;6.80;;;8.40;99.90;;;;;;5016129;28;20719;-79
2023/04/15 02:44:33;;;;;;;9.70;6.80;;;8.40;99.90;;;;;;5015027;28;20294;-79
2023/04/15 02:47:00;;;;;;;10.67;6.53;;;8.40;99.90;;;;;;5011914;28;20204;-80
2023/04/15 02:49:28;;;;;;;11.47;6.27;;;8.40;99.90;;;;;;4996354;28;20601;-82
2023/04/15 02:51:58;;;;;;;11.73;6.80;;;8.40;99.90;;;;;;4998152;28;20211;-79
2023/04/15 02:54:28;;;;;;;10.60;6.73;;;8.30;99.90;;;;;;5016286;28;20203;-84
2023/04/15 02:56:55;;;;;;;11.27;7.17;;;8.30;99.90;;;;;;5016140;28;20226;-81
2023/04/15 02:59:22;;;;;;;10.40;7.40;;;8.30;99.90;;;;;;5005129;28;20240;-79
2023/04/15 03:01:50;;;;;;;10.00;6.97;;;8.30;99.90;;;;;;4995941;28;20669;-83
2023/04/15 03:04:17;;;;;;;11.67;6.90;;;8.30;99.90;;;;;;4996454;28;20201;-80
2023/04/15 03:06:44;;;;;;;13.50;7.57;;;8.30;99.90;;;;;;4995477;28;20223;-81
2023/04/15 03:09:12;;;;;;;10.30;7.37;;;8.30;99.90;;;;;;4994961;28;20235;-79
2023/04/15 03:11:40;;;;;;;12.97;7.73;;;8.30;99.90;;;;;;4995302;28;20228;-78
2023/04/15 03:14:07;;;;;;;12.63;7.37;;;8.30;99.90;;;;;;4993690;28;20203;-78
2023/04/15 03:16:34;;;;;;;11.83;7.23;;;8.30;99.90;;;;;;4995658;28;20196;-81
2023/04/15 03:19:01;;;;;;;12.67;7.50;;;8.30;99.90;;;;;;4996010;28;20247;-81
2023/04/15 03:21:28;;;;;;;9.57;7.43;;;8.30;99.90;;;;;;4995323;28;20204;-80
2023/04/15 03:23:55;;;;;;;14.40;8.30;;;8.30;99.90;;;;;;4995453;28;20234;-82
2023/04/15 03:26:29;;;;;;;9.93;7.70;;;8.20;99.90;;;;;;5014602;28;20223;-84
2023/04/15 03:28:56;;;;;;;11.17;8.73;;;8.20;99.90;;;;;;5014291;28;20286;-82
2023/04/15 03:31:23;;;;;;;12.67;8.50;;;8.20;99.90;;;;;;5014564;28;20281;-79
2023/04/15 03:33:50;;;;;;;12.17;8.77;;;8.20;99.90;;;;;;5008608;28;20250;-82
2023/04/15 03:36:17;;;;;;;10.47;8.40;;;8.20;99.90;;;;;;4995022;28;20227;-78
2023/04/15 03:38:44;;;;;;;9.73;8.10;;;8.10;99.90;;;;;;4994622;28;20239;-81
2023/04/15 03:41:11;;;;;;;14.57;8.67;;;8.20;99.90;;;;;;4994484;28;20200;-79
2023/04/15 03:43:40;;;;;;;11.90;8.33;;;8.10;99.90;;;;;;4995375;28;20236;-79
2023/04/15 03:46:07;;;;;;;13.17;8.90;;;8.20;99.90;;;;;;4995122;28;20643;-81
2023/04/15 03:48:34;;;;;;;13.83;9.40;;;8.20;99.90;;;;;;4994568;28;20295;-81
2023/04/15 03:51:01;;;;;;;12.70;8.43;;;8.10;99.90;;;;;;4995785;28;20357;-79
2023/04/15 03:53:28;;;;;;;10.87;8.90;;;8.00;99.90;;;;;;4994825;28;20200;-80
2023/04/15 03:55:55;;;;;;;13.10;8.50;;;8.00;99.90;;;;;;4994657;28;20204;-80
2023/04/15 03:58:22;;;;;;;10.33;8.57;;;8.00;99.90;;;;;;4994782;28;20628;-79
2023/04/15 04:00:50;;;;;;;18.10;10.20;;;8.00;99.90;;;;;;4994691;28;20210;-79
2023/04/15 04:03:17;;;;;;;10.97;8.40;;;7.90;99.90;;;;;;4994106;28;20206;-80
2023/04/15 04:05:44;;;;;;;16.37;9.70;;;7.90;99.90;;;;;;4994714;28;20307;-79
2023/04/15 04:08:12;;;;;;;11.90;9.53;;;7.90;99.90;;;;;;4994317;28;20825;-80
2023/04/15 04:10:40;;;;;;;14.20;10.30;;;7.90;99.90;;;;;;4994391;28;20212;-79
2023/04/15 04:13:06;;;;;;;12.53;10.53;;;7.80;99.90;;;;;;4994613;28;20211;-81
2023/04/15 04:15:33;;;;;;;15.33;10.30;;;7.80;99.90;;;;;;4994316;28;20272;-80
2023/04/15 04:18:02;;;;;;;12.27;9.07;;;7.80;99.90;;;;;;4993880;28;20544;-79
2023/04/15 04:20:30;;;;;;;15.63;9.57;;;7.80;99.90;;;;;;4994338;28;20296;-80
2023/04/15 04:22:57;;;;;;;12.33;9.60;;;7.70;99.90;;;;;;4994509;28;20208;-81
2023/04/15 04:25:24;;;;;;;12.80;10.00;;;7.70;99.90;;;;;;4993608;28;20236;-82
2023/04/15 04:27:51;;;;;;;12.27;9.67;;;7.60;99.90;;;;;;4994271;28;20307;-82
2023/04/15 04:30:18;;;;;;;13.67;10.20;;;7.60;99.90;;;;;;4994631;28;20283;-78
2023/04/15 04:32:45;;;;;;;11.90;9.67;;;7.50;99.90;;;;;;4994177;28;20653;-81
2023/04/15 04:35:13;;;;;;;14.57;10.57;;;7.50;99.90;;;;;;4993486;28;20238;-81
2023/04/15 04:37:40;;;;;;;16.67;10.83;;;7.50;99.90;;;;;;4993793;28;20223;-81
2023/04/15 04:40:09;;;;;;;13.83;9.87;;;7.40;99.90;;;;;;4995311;28;20195;-79
2023/04/15 04:42:36;;;;;;;14.00;9.07;;;7.40;99.90;;;;;;4995346;28;20211;-79
2023/04/15 04:45:03;;;;;;;10.23;8.93;;;7.30;99.90;;;;;;4994797;28;20263;-81
2023/04/15 04:47:30;;;;;;;16.73;9.10;;;7.30;99.90;;;;;;4994885;28;20207;-81
2023/04/15 04:49:57;;;;;;;17.80;10.43;;;7.20;99.90;;;;;;4995521;28;20296;-82
2023/04/15 04:52:25;;;;;;;11.67;9.37;;;7.20;99.90;;;;;;4994347;28;20207;-80
2023/04/15 04:54:52;;;;;;;11.77;9.13;;;7.10;99.90;;;;;;4994744;28;20211;-80
2023/04/15 04:57:19;;;;;;;10.87;8.90;;;7.00;99.90;;;;;;4994216;28;20234;-79
2023/04/15 04:59:46;;;;;;;13.70;9.63;;;7.00;99.90;;;;;;4994738;28;20204;-83
2023/04/15 05:02:13;;;;;;;13.10;9.33;;;7.00;99.90;;;;;;4995102;28;20322;-82
2023/04/15 05:04:41;;;;;;;15.23;9.37;;;6.90;99.90;;;;;;5006239;28;20261;-80
2023/04/15 05:07:08;;;;;;;13.93;9.63;;;6.90;99.90;;;;;;5008689;28;20212;-82
2023/04/15 05:09:37;;;;;;;13.03;9.20;;;6.90;99.90;;;;;;4995077;28;20282;-83
2023/04/15 05:12:04;;;;;;;19.33;11.27;;;6.90;99.90;;;;;;4994945;28;20224;-82
2023/04/15 05:14:32;;;;;;;13.13;9.80;;;6.80;99.90;;;;;;4994418;28;20675;-83
2023/04/15 05:16:59;;;;;;;11.30;9.20;;;6.80;99.90;;;;;;4994990;28;20569;-83
2023/04/15 05:19:26;;;;;;;14.93;8.83;;;6.90;99.90;;;;;;4994029;28;20247;-84
2023/04/15 05:21:53;;;;;;;15.67;10.80;;;6.80;99.90;;;;;;4993378;28;20210;-83
2023/04/15 05:24:20;;;;;;;13.13;9.37;;;6.90;99.90;;;;;;4993717;28;20206;-83
2023/04/15 05:26:48;;;;;;;12.93;10.10;;;7.00;99.90;;;;;;4993984;28;20302;-83
2023/04/15 05:29:15;;;;;;;14.00;9.90;;;7.00;99.90;;;;;;4994251;28;20206;-82
2023/04/15 05:31:42;;;;;;;14.40;9.97;;;7.10;99.90;;;;;;4993743;28;20203;-82
2023/04/15 05:34:10;;;;;;;14.70;9.50;;;7.10;99.90;;;;;;4993122;28;20523;-80
2023/04/15 05:36:37;;;;;;;13.40;9.67;;;7.20;99.90;;;;;;4993036;28;20300;-81
2023/04/15 05:39:05;;;;;;;17.40;10.50;;;7.20;99.90;;;;;;4993647;28;20510;-81
2023/04/15 05:41:31;;;;;;;15.67;11.17;;;7.30;99.90;;;;;;4992921;28;20212;-81
2023/04/15 05:44:00;;;;;;;14.07;10.30;;;7.30;99.90;;;;;;4993381;28;20200;-81
2023/04/15 05:46:27;;;;;;;12.73;11.13;;;7.40;99.90;;;;;;4994141;28;20752;-81
2023/04/15 05:48:54;;;;;;;13.97;10.67;;;7.50;99.90;;;;;;4993387;28;20609;-81
2023/04/15 05:51:21;;;;;;;14.70;10.70;;;7.50;99.90;;;;;;4993405;28;20615;-82
2023/04/15 05:53:48;;;;;;;14.87;10.10;;;7.60;99.90;;;;;;4994221;28;20327;-82
2023/04/15 05:56:15;;;;;;;17.27;11.57;;;7.60;99.90;;;;;;4993115;28;20202;-82
2023/04/15 05:58:42;;;;;;;14.20;11.00;;;7.70;99.90;;;;;;4993119;28;20247;-81
2023/04/15 06:01:10;;;;;;;14.43;10.33;;;7.70;99.90;;;;;;4993535;28;20291;-81
2023/04/15 06:03:38;;;;;;;13.23;10.50;;;7.80;99.90;;;;;;4993201;28;20247;-81
2023/04/15 06:06:06;;;;;;;17.33;10.63;;;7.90;99.90;;;;;;4998479;28;20298;-80
2023/04/15 06:08:33;;;;;;;16.20;10.53;;;7.90;99.90;;;;;;5013028;28;20200;-82
2023/04/15 06:11:01;;;;;;;13.87;10.67;;;8.00;99.90;;;;;;5002046;28;20208;-81
2023/04/15 06:13:27;;;;;;;14.43;10.73;;;8.10;99.90;;;;;;4993282;28;20271;-82
2023/04/15 06:15:54;;;;;;;13.33;10.57;;;8.10;99.90;;;;;;4992657;28;20331;-81
2023/04/15 06:18:23;;;;;;;14.30;10.03;;;8.10;99.90;;;;;;4992739;28;20204;-82
2023/04/15 06:20:50;;;;;;;15.37;11.37;;;8.20;99.90;;;;;;4993224;28;20296;-82
2023/04/15 06:23:17;;;;;;;10.97;9.37;;;8.20;99.90;;;;;;4992850;28;20208;-82
2023/04/15 06:25:44;;;;;;;13.73;10.97;;;8.20;99.90;;;;;;5006185;28;20207;-80
2023/04/15 06:28:11;;;;;;;14.33;11.77;;;8.20;99.90;;;;;;5011969;28;20195;-81
2023/04/15 06:30:38;;;;;;;13.40;10.33;;;8.30;99.90;;;;;;5010897;28;20196;-80
2023/04/15 06:33:06;;;;;;;15.10;10.93;;;8.40;99.90;;;;;;5000896;28;20214;-82
2023/04/15 06:35:34;;;;;;;14.50;11.00;;;8.40;99.90;;;;;;4992058;28;20266;-81
2023/04/15 06:38:01;;;;;;;15.53;10.97;;;8.50;99.90;;;;;;4991696;28;20291;-82
2023/04/15 06:40:28;;;;;;;15.97;11.63;;;8.50;99.90;;;;;;4991405;28;20204;-80
2023/04/15 06:42:55;;;;;;;13.20;10.10;;;8.50;99.90;;;;;;4991959;28;20287;-82
2023/04/15 06:45:22;;;;;;;12.07;10.70;;;8.60;99.90;;;;;;4991740;28;20207;-82
2023/04/15 06:47:49;;;;;;;14.63;10.67;;;8.70;99.90;;;;;;4993574;28;20314;-80
2023/04/15 06:50:16;;;;;;;12.83;9.93;;;8.70;99.90;;;;;;4995974;28;20212;-82
2023/04/15 06:52:44;;;;;;;15.57;11.57;;;8.80;99.90;;;;;;4995782;28;20238;-80
2023/04/15 06:55:11;;;;;;;13.17;10.30;;;8.80;99.90;;;;;;4995984;28;20287;-82
2023/04/15 06:57:38;;;;;;;16.17;10.53;;;8.80;99.90;;;;;;4996103;28;20259;-81
2023/04/15 07:00:06;;;;;;;12.87;11.23;;;8.90;99.90;;;;;;4995648;28;20287;-82
2023/04/15 07:02:33;;;;;;;14.70;11.10;;;9.00;99.90;;;;;;4996261;28;20235;-82
2023/04/15 07:05:00;;;;;;;15.57;11.23;;;9.10;99.90;;;;;;4995873;28;20211;-81
2023/04/15 07:07:27;;;;;;;14.07;10.47;;;9.10;99.90;;;;;;4994662;28;20688;-80
2023/04/15 07:09:56;;;;;;;12.33;9.90;;;9.20;99.90;;;;;;4995700;28;20821;-81
2023/04/15 07:12:23;;;;;;;15.63;10.83;;;9.30;99.90;;;;;;4995042;28;20670;-82
2023/04/15 07:14:50;;;;;;;13.63;10.50;;;9.40;99.90;;;;;;4995227;28;20267;-80
2023/04/15 07:17:16;;;;;;;13.37;10.30;;;9.50;99.90;;;;;;4995749;28;20286;-80
2023/04/15 07:19:43;;;;;;;15.00;10.73;;;9.70;99.90;;;;;;4995148;28;20204;-79
2023/04/15 07:22:10;;;;;;;12.33;10.00;;;9.80;99.90;;;;;;4995645;28;20502;-80
2023/04/15 07:24:37;;;;;;;13.27;9.43;;;10.00;99.90;;;;;;4995311;28;20212;-79
2023/04/15 07:27:05;;;;;;;12.07;9.47;;;10.20;99.90;;;;;;4994860;28;20698;-79
2023/04/15 07:29:32;;;;;;;12.33;8.77;;;10.40;99.90;;;;;;4995608;28;20232;-79
2023/04/15 07:31:59;;;;;;;9.90;8.30;;;10.60;99.90;;;;;;4994899;28;20347;-79
2023/04/15 07:34:26;;;;;;;9.20;7.80;;;10.90;99.90;;;;;;4994603;28;20310;-79
2023/04/15 07:36:53;;;;;;;11.50;7.97;;;11.00;99.90;;;;;;4995061;28;20250;-80
2023/04/15 07:39:20;;;;;;;11.90;7.13;;;11.20;99.90;;;;;;4995559;28;20242;-81
2023/04/15 07:41:47;;;;;;;10.20;6.90;;;11.30;99.90;;;;;;4994045;28;20196;-79
2023/04/15 07:44:16;;;;;;;9.30;6.33;;;11.40;99.90;;;;;;4994554;28;20208;-81
2023/04/15 07:46:43;;;;;;;8.70;6.80;;;11.40;99.90;;;;;;4994822;28;20231;-79
2023/04/15 07:49:09;;;;;;;7.27;6.57;;;11.50;99.90;;;;;;4994078;28;20296;-79
2023/04/15 07:51:37;;;;;;;7.97;6.93;;;11.60;99.90;;;;;;4994815;28;20286;-80
2023/04/15 07:54:04;;;;;;;7.90;6.70;;;11.60;99.90;;;;;;4994739;28;20212;-80
2023/04/15 07:56:31;;;;;;;7.23;6.50;;;11.70;99.90;;;;;;4994536;28;20202;-78
2023/04/15 07:59:00;;;;;;;11.87;7.63;;;11.80;99.90;;;;;;4993996;28;20219;-81
2023/04/15 08:01:29;;;;;;;7.63;5.93;;;12.00;99.90;;;;;;4994007;28;20192;-79
2023/04/15 08:03:56;;;;;;;7.00;5.13;;;12.20;99.90;;;;;;4994529;28;20592;-78
2023/04/15 08:06:23;;;;;;;5.67;4.83;;;12.30;99.90;;;;;;4993932;28;20240;-78
2023/04/15 08:08:50;;;;;;;5.87;5.07;;;12.40;99.90;;;;;;4994266;28;20196;-79
2023/04/15 08:11:17;;;;;;;7.07;5.33;;;12.40;99.90;;;;;;4994539;28;20411;-79
2023/04/15 08:13:44;;;;;;;6.47;4.80;;;12.40;99.90;;;;;;4994697;28;20207;-79
2023/04/15 08:16:19;;;;;;;5.73;4.60;;;12.40;87.60;;;;;;4994064;28;20290;-80
2023/04/15 08:18:48;;;;;;;6.20;4.97;;;12.50;68.30;;;;;;4994264;28;20192;-78
2023/04/15 08:21:16;;;;;;;6.37;5.27;;;12.60;57.60;;;;;;4994343;28;20282;-79
2023/04/15 08:23:43;;;;;;;6.37;5.00;;;12.60;93.70;;;;;;4994040;28;20307;-79
2023/04/15 08:26:10;;;;;;;6.83;5.30;;;12.70;88.60;;;;;;4994128;28;20210;-78
2023/04/15 08:28:39;;;;;;;5.03;4.53;;;12.70;82.30;;;;;;4993937;28;20626;-79
2023/04/15 08:31:06;;;;;;;6.90;6.00;;;12.90;98.60;;;;;;4993315;28;20211;-81
2023/04/15 08:33:33;;;;;;;7.20;5.70;;;12.90;93.70;;;;;;4994610;28;20239;-80
2023/04/15 08:36:02;;;;;;;8.43;5.63;;;13.00;98.30;;;;;;4993729;28;20218;-79
2023/04/15 08:38:29;;;;;;;8.77;6.10;;;13.10;92.90;;;;;;4993699;28;20203;-79
2023/04/15 08:40:57;;;;;;;6.90;5.30;;;13.20;43.10;;;;;;4994250;28;20206;-80
2023/04/15 08:43:27;;;;;;;7.63;5.47;;;13.30;24.80;;;;;;4993617;28;20258;-79
2023/04/15 08:45:54;;;;;;;6.90;5.10;;;13.40;14.70;;;;;;4992930;28;20507;-81
2023/04/15 08:48:23;;;;;;;4.83;3.97;;;13.60;1.00;;;;;;4994036;28;20226;-79
2023/04/15 08:50:51;;;;;;;4.87;4.37;;;13.50;1.00;;;;;;4993328;28;20288;-78
2023/04/15 08:53:20;;;;;;;5.00;4.17;;;13.50;1.00;;;;;;4993406;28;20728;-79
2023/04/15 08:55:49;;;;;;;6.17;4.30;;;13.50;1.00;;;;;;4993399;28;20242;-82
2023/04/15 08:58:16;;;;;;;5.33;4.53;;;13.70;1.00;;;;;;4992561;28;20660;-80
2023/04/15 09:00:43;;;;;;;7.20;4.13;;;13.90;1.00;;;;;;4993459;28;20204;-80
2023/04/15 09:03:12;;;;;;;4.13;3.73;;;13.80;1.00;;;;;;4993238;28;20307;-79
2023/04/15 09:05:39;;;;;;;7.07;4.10;;;13.90;1.00;;;;;;4992660;28;20273;-80
2023/04/15 09:08:06;;;;;;;6.93;4.10;;;14.00;1.00;;;;;;4993017;28;20220;-79
2023/04/15 09:10:35;;;;;;;4.50;3.90;;;13.70;1.00;;;;;;4993410;28;20332;-79
2023/04/15 09:13:03;;;;;;;5.37;4.37;;;13.90;1.00;;;;;;4992197;28;20212;-81
2023/04/15 09:15:32;;;;;;;6.20;3.93;;;13.90;1.00;;;;;;4992908;28;20542;-80
2023/04/15 09:17:59;;;;;;;6.73;4.90;;;13.80;7.30;;;;;;4993046;28;20806;-79
2023/04/15 09:20:26;;;;;;;5.83;4.40;;;13.90;1.00;;;;;;4992243;28;20235;-80
2023/04/15 09:22:53;;;;;;;4.23;3.77;;;13.90;1.00;;;;;;4992785;28;20605;-79
2023/04/15 09:25:28;;;;;;;4.63;3.97;;;14.10;1.00;;;;;;4992988;28;20290;-79
2023/04/15 09:27:58;;;;;;;4.73;3.63;;;14.30;30.70;;;;;;4992135;28;20239;-79
2023/04/15 09:30:26;;;;;;;4.93;3.53;;;14.30;98.70;;;;;;4992877;28;20728;-80
2023/04/15 09:32:54;;;;;;;5.13;3.30;;;14.20;1.00;;;;;;4992468;28;20271;-78
2023/04/15 09:35:21;;;;;;;4.73;3.90;;;14.20;1.00;;;;;;4992836;28;20624;-79
2023/04/15 09:37:48;;;;;;;6.83;4.00;;;14.30;1.00;;;;;;4992888;28;20533;-81
2023/04/15 09:40:30;;;;;;;7.20;3.80;;;14.20;1.00;;;;;;4992830;28;20286;-79
2023/04/15 09:43:00;;;;;;;5.50;3.80;;;14.10;2.40;;;;;;4992828;28;20685;-81
2023/04/15 09:45:28;;;;;;;8.00;3.70;;;14.20;1.00;;;;;;4993200;28;20192;-78
2023/04/15 09:47:54;;;;;;;6.20;4.10;;;14.30;1.00;;;;;;4992155;28;20659;-78
2023/04/15 09:50:21;;;;;;;5.17;3.47;;;14.40;1.00;;;;;;4993164;28;20234;-79
2023/04/15 09:52:48;;;;;;;4.17;3.10;;;14.40;99.90;;;;;;4992820;28;20612;-78
2023/04/15 09:55:18;;;;;;;4.73;3.60;;;14.10;99.90;;;;;;4992592;28;20282;-79
2023/04/15 09:57:47;;;;;;;5.17;3.50;;;14.10;1.00;;;;;;4993150;28;20200;-79
2023/04/15 10:00:16;;;;;;;5.57;3.50;;;14.00;1.00;;;;;;4993007;28;20336;-78
2023/04/15 10:02:43;;;;;;;6.37;3.30;;;14.10;1.00;;;;;;4991915;28;20303;-81
2023/04/15 10:05:11;;;;;;;5.77;3.27;;;14.20;1.00;;;;;;4993070;28;20200;-80
2023/04/15 10:07:39;;;;;;;5.27;3.70;;;14.40;1.00;;;;;;4992691;28;20756;-78
2023/04/15 10:10:08;;;;;;;8.07;3.67;;;14.70;1.00;;;;;;4991688;28;20712;-81
2023/04/15 10:12:37;;;;;;;5.63;4.00;;;15.00;1.00;;;;;;4992300;28;20627;-80
2023/04/15 10:15:06;;;;;;;8.87;4.97;;;14.90;1.00;;;;;;4991803;28;20246;-79
2023/04/15 10:17:35;;;;;;;6.80;3.57;;;14.70;1.00;;;;;;4992372;28;20207;-78
2023/04/15 10:20:03;;;;;;;5.53;3.70;;;14.60;1.00;;;;;;4992154;28;20208;-80
2023/04/15 10:22:31;;;;;;;3.83;3.40;;;14.80;57.20;;;;;;4992222;28;20295;-82
2023/04/15 10:24:59;;;;;;;4.07;3.65;;;14.80;1.00;;;;;;4995749;28;20504;-78
2023/04/15 10:27:27;;;;;;;4.37;2.93;;;14.90;1.00;;;;;;4996003;28;20230;-80
2023/04/15 10:29:55;;;;;;;3.42;2.90;;;14.90;1.00;;;;;;4995591;28;20204;-78
2023/04/15 10:32:25;;;;;;;5.27;2.93;;;14.90;1.00;;;;;;4996332;28;20240;-79
2023/04/15 10:34:54;;;;;;;6.13;3.55;;;15.10;19.20;;;;;;4996381;28;20225;-80
2023/04/15 10:37:22;;;;;;;6.57;4.00;;;15.20;1.00;;;;;;4995079;28;20290;-79
2023/04/15 10:39:49;;;;;;;8.68;3.85;;;15.30;1.00;;;;;;4995801;28;20196;-78
2023/04/15 10:42:19;;;;;;;5.07;3.47;;;15.30;1.00;;;;;;4996151;28;20200;-79
2023/04/15 10:44:50;;;;;;;5.23;3.30;;;15.20;1.00;;;;;;4995536;28;20218;-78
2023/04/15 10:47:19;;;;;;;4.70;3.40;;;15.20;48.80;;;;;;4995956;28;20230;-80
2023/04/15 10:49:49;;;;;;;6.18;3.75;;;15.20;1.00;;;;;;4995656;28;20600;-78
2023/04/15 10:52:18;;;;;;;5.03;3.90;;;15.40;1.00;;;;;;4994730;28;20231;-80
2023/04/15 10:54:46;;;;;;;4.53;3.37;;;15.40;1.00;;;;;;4995497;28;20481;-78
2023/04/15 10:57:21;;;;;;;3.97;3.33;;;15.40;6.90;;;;;;4994857;28;20210;-80
2023/04/15 11:00:13;;;;;;;7.93;3.43;;;15.00;1.00;;;;;;4995845;28;20203;-81
2023/04/15 11:02:46;;;;;;;6.73;2.83;;;14.90;1.00;;;;;;4993137;28;20203;-79
2023/04/15 11:05:13;;;;;;;2.67;2.40;;;14.90;1.00;;;;;;4994958;28;20203;-79
2023/04/15 11:07:53;;;;;;;2.67;2.30;;;15.00;1.00;;;;;;4995219;28;20230;-81
2023/04/15 11:10:54;;;;;;;6.50;2.80;;;14.90;1.00;;;;;;4995165;28;20581;-77
2023/04/15 11:13:29;;;;;;;6.00;3.20;;;15.10;1.00;;;;;;4994966;28;20199;-79
2023/04/15 11:16:02;;;;;;;4.20;1.90;;;15.10;1.00;;;;;;4994696;28;20329;-81
2023/04/15 11:18:31;;;;;;;2.50;1.60;;;15.20;1.00;;;;;;4995126;28;20892;-80
2023/04/15 11:21:00;;;;;;;3.63;2.00;;;15.10;1.00;;;;;;4995006;28;20228;-80
2023/04/15 11:23:37;;;;;;;2.37;1.50;;;15.00;1.00;;;;;;4995103;28;20214;-80
2023/04/15 11:26:08;;;;;;;3.97;1.80;;;14.80;1.00;;;;;;4994743;28;20239;-79
2023/04/15 11:28:35;;;;;;;3.10;1.67;;;14.80;1.00;;;;;;4995665;28;20325;-81
2023/04/15 11:31:10;;;;;;;3.57;1.57;;;14.80;99.90;;;;;;4995217;28;20287;-80
2023/04/15 11:33:38;;;;;;;3.77;1.73;;;14.80;1.00;;;;;;4994012;28;20880;-79
2023/04/15 11:36:05;;;;;;;3.07;1.63;;;15.00;1.00;;;;;;4995093;28;20200;-79
2023/04/15 11:38:36;;;;;;;2.63;1.42;;;15.00;99.90;;;;;;4995805;28;20232;-80
2023/04/15 11:41:03;;;;;;;3.00;1.63;;;14.90;93.20;;;;;;4994551;28;20222;-78
2023/04/15 11:43:34;;;;;;;3.03;1.70;;;14.80;99.90;;;;;;4995229;28;20210;-81
2023/04/15 11:46:02;;;;;;;6.53;2.20;;;14.90;99.90;;;;;;4995615;28;20790;-79
2023/04/15 11:48:30;;;;;;;3.50;1.80;;;15.10;99.90;;;;;;4994733;28;20311;-79
2023/04/15 11:50:58;;;;;;;4.20;1.98;;;15.20;99.90;;;;;;4995212;28;20208;-79
2023/04/15 11:53:36;;;;;;;2.83;2.23;;;15.40;99.90;;;;;;4995466;28;20204;-79
2023/04/15 11:56:05;;;;;;;3.77;1.93;;;15.20;99.90;;;;;;4995403;28;20192;-78
2023/04/15 11:58:35;;;;;;;2.90;2.30;;;15.00;99.90;;;;;;4994472;28;20230;-80
2023/04/15 12:01:02;;;;;;;4.13;1.97;;;14.80;99.90;;;;;;4994749;28;20200;-80
2023/04/15 12:03:30;;;;;;;3.93;2.20;;;14.90;99.90;;;;;;4995503;28;20287;-83
2023/04/15 12:06:15;;;;;;;2.90;2.20;;;14.80;99.90;;;;;;4994091;28;20579;-78
2023/04/15 12:08:49;;;;;;;3.20;1.60;;;14.80;99.90;;;;;;4992945;28;20228;-80
2023/04/15 12:11:20;;;;;;;3.20;1.90;;;14.60;99.90;;;;;;4994492;28;20538;-79
2023/04/15 12:13:49;;;;;;;3.63;2.37;;;14.60;1.00;;;;;;4994395;28;20646;-78
2023/04/15 12:16:18;;;;;;;3.57;2.27;;;14.60;1.00;;;;;;4996852;28;20234;-81
2023/04/15 12:18:47;;;;;;;4.13;2.00;;;14.40;1.00;;;;;;5014357;28;20231;-81
2023/04/15 12:21:14;;;;;;;3.83;2.30;;;14.40;1.00;;;;;;5014106;28;20195;-78
2023/04/15 12:23:48;;;;;;;2.83;1.53;;;14.40;1.00;;;;;;5013560;28;20226;-80
2023/04/15 12:26:17;;;;;;;4.33;1.77;;;14.50;99.90;;;;;;4999917;28;20210;-81
2023/04/15 12:28:44;;;;;;;4.07;2.20;;;14.70;99.90;;;;;;4994229;28;20231;-80
2023/04/15 12:31:11;;;;;;;6.47;2.17;;;14.80;99.90;;;;;;4994417;28;20196;-80
2023/04/15 12:33:39;;;;;;;2.30;1.87;;;14.90;99.90;;;;;;4994270;28;20255;-83
2023/04/15 12:36:06;;;;;;;3.78;1.90;;;14.90;99.90;;;;;;4994159;28;20208;-81
2023/04/15 12:38:33;;;;;;;3.30;1.60;;;14.90;99.90;;;;;;4994621;28;20243;-82
2023/04/15 12:41:00;;;;;;;2.53;1.97;;;14.80;99.90;;;;;;4994120;28;20563;-80
2023/04/15 12:43:28;;;;;;;3.60;1.73;;;14.60;99.90;;;;;;4993125;28;20207;-79
2023/04/15 12:45:55;;;;;;;3.17;1.93;;;14.50;99.90;;;;;;4993682;28;20228;-79
2023/04/15 12:48:22;;;;;;;4.90;2.43;;;14.70;99.90;;;;;;4994328;28;20227;-82
2023/04/15 12:50:49;;;;;;;4.30;1.97;;;14.80;99.90;;;;;;4993551;28;20204;-80
2023/04/15 12:53:16;;;;;;;2.43;1.90;;;15.00;99.90;;;;;;4993470;28;20246;-79